Time;durP1;ratioP1;P1;durP2;ratioP2;P2;SDS_P1;SDS_P2;PMS_P1;PMS_P2;Temp;Humidity;BMP_temperature;BMP_pressure;BME280_temperature;BME280_humidity;BME280_pressure;Samples;Min_cycle;Max_cycle;Signal;HPM_P1;HPM_P2
2022/06/24 00:00:16;;;;;;;1014.85;948.55;;;;;;;25.82;37.88;100712.06;693196;28;116568;-66
2022/06/24 00:00:40;;;;;;;1007.42;941.38;;;;;;;25.82;38.21;100709.31;691836;28;69659;-65
2022/06/24 00:01:01;;;;;;;1010.08;944.00;;;;;;;25.80;37.80;100708.75;691746;28;69397;-65
2022/06/24 00:01:23;;;;;;;1010.05;944.05;;;;;;;25.83;38.27;100710.94;693793;28;23458;-66
2022/06/24 00:01:52;;;;;;;1007.47;941.53;;;;;;;25.83;38.25;100709.03;692800;28;44400;-64
2022/06/24 00:02:20;;;;;;;1010.33;944.25;;;;;;;25.82;38.22;100712.91;689775;28;137814;-65
2022/06/24 00:02:48;;;;;;;1017.40;951.00;;;;;;;25.81;38.27;100704.88;692198;28;116280;-64
2022/06/24 00:03:15;;;;;;;1013.38;947.08;;;;;;;25.79;38.13;100707.09;692427;28;137670;-64
2022/06/24 00:03:36;;;;;;;1017.40;950.97;;;;;;;25.82;37.91;100709.31;692575;28;136351;-64
2022/06/24 00:03:57;;;;;;;1018.13;951.63;;;;;;;25.79;37.95;100705.16;696445;28;22190;-64
2022/06/24 00:04:22;;;;;;;1015.73;949.37;;;;;;;25.82;38.03;100709.31;697424;28;46319;-64
2022/06/24 00:04:49;;;;;;;1010.45;944.25;;;;;;;25.80;38.20;100703.22;691923;28;115142;-65
2022/06/24 00:05:11;;;;;;;1015.55;949.08;;;;;;;25.80;38.23;100709.59;691090;28;160966;-64
2022/06/24 00:05:35;;;;;;;1011.13;944.92;;;;;;;25.81;38.04;100716.75;695361;28;45088;-65
2022/06/24 00:05:56;;;;;;;1015.35;948.92;;;;;;;25.78;37.88;100703.47;696088;28;91711;-65
2022/06/24 00:06:18;;;;;;;1011.47;945.25;;;;;;;25.80;38.33;100705.97;698788;28;23405;-66
2022/06/24 00:06:47;;;;;;;1012.50;946.20;;;;;;;25.78;37.75;100706.25;697345;28;59093;-65
2022/06/24 00:07:14;;;;;;;1016.45;949.90;;;;;;;25.76;38.12;100708.47;695721;28;90684;-64
2022/06/24 00:07:44;;;;;;;1017.42;950.92;;;;;;;25.74;38.15;100707.94;694786;28;137707;-62
2022/06/24 00:08:07;;;;;;;1012.28;945.97;;;;;;;25.71;38.21;100705.72;692184;28;138368;-65
2022/06/24 00:08:29;;;;;;;1019.42;952.92;;;;;;;25.66;37.87;100702.97;695427;28;46236;-65
2022/06/24 00:08:52;;;;;;;1018.05;951.63;;;;;;;25.67;37.94;100708.25;695003;28;45256;-64
2022/06/24 00:09:17;;;;;;;1014.85;948.50;;;;;;;25.65;38.06;100707.66;694244;28;93220;-66
2022/06/24 00:09:40;;;;;;;1010.95;944.75;;;;;;;25.62;38.28;100697.16;691165;28;137443;-64
2022/06/24 00:10:01;;;;;;;1008.95;942.75;;;;;;;25.63;38.43;100707.13;694935;28;69958;-65
2022/06/24 00:10:29;;;;;;;1009.78;943.67;;;;;;;25.62;38.08;100710.16;695375;28;21771;-65
2022/06/24 00:10:50;;;;;;;1005.80;939.85;;;;;;;25.61;38.53;100701.06;691626;28;137927;-64
2022/06/24 00:11:11;;;;;;;996.42;930.78;;;;;;;25.57;38.62;100699.94;695670;28;22455;-65
2022/06/24 00:11:34;;;;;;;943.63;879.78;;;;;;;25.59;38.14;100702.44;695125;28;44399;-65
2022/06/24 00:12:06;;;;;;;968.05;903.40;;;;;;;25.56;38.28;100702.97;694123;28;69762;-65
2022/06/24 00:12:27;;;;;;;1039.38;971.97;;;;;;;25.52;38.36;100706.31;691366;28;160648;-65
2022/06/24 00:12:50;;;;;;;1033.30;966.10;;;;;;;25.50;38.49;100704.91;694513;28;45260;-65
2022/06/24 00:13:12;;;;;;;1023.95;957.13;;;;;;;25.50;38.77;100699.38;693911;28;92172;-65
2022/06/24 00:13:37;;;;;;;1020.10;953.33;;;;;;;25.46;38.33;100701.88;694918;28;68322;-60
2022/06/24 00:14:04;;;;;;;1024.88;957.92;;;;;;;25.45;38.29;100700.22;693348;28;113552;-63
2022/06/24 00:14:25;;;;;;;995.88;930.15;;;;;;;25.45;38.54;100702.97;692087;28;139058;-63
2022/06/24 00:14:57;;;;;;;990.53;925.03;;;;;;;25.46;38.70;100701.88;695692;28;20811;-62
2022/06/24 00:15:24;;;;;;;995.88;930.25;;;;;;;25.45;38.91;100702.97;692109;28;137695;-63
2022/06/24 00:15:45;;;;;;;1005.88;939.80;;;;;;;25.46;38.79;100707.41;691886;28;138092;-62
2022/06/24 00:16:06;;;;;;;996.17;930.55;;;;;;;25.43;38.79;100701.63;696662;28;21479;-63
2022/06/24 00:16:27;;;;;;;989.45;924.13;;;;;;;25.46;38.94;100704.66;696367;28;22416;-63
2022/06/24 00:16:53;;;;;;;988.90;923.50;;;;;;;25.45;38.32;100697.44;695843;28;21739;-59
2022/06/24 00:17:16;;;;;;;1001.92;935.92;;;;;;;25.45;38.38;100704.94;691524;28;161043;-62
2022/06/24 00:17:37;;;;;;;985.17;919.93;;;;;;;25.43;38.58;100702.44;694252;28;67494;-66
2022/06/24 00:18:11;;;;;;;1001.10;935.25;;;;;;;25.42;38.48;100700.78;695880;28;46386;-62
2022/06/24 00:18:32;;;;;;;1013.60;947.35;;;;;;;25.41;38.92;100703.81;692494;28;137537;-64
2022/06/24 00:19:09;;;;;;;1008.08;941.92;;;;;;;25.40;38.62;100703.00;696239;28;23844;-64
2022/06/24 00:19:31;;;;;;;1010.20;943.92;;;;;;;25.40;38.78;100704.94;692210;28;137800;-65
2022/06/24 00:19:54;;;;;;;998.28;932.50;;;;;;;25.39;38.84;100706.03;693392;28;69370;-64
2022/06/24 00:20:17;;;;;;;996.78;931.00;;;;;;;25.37;38.81;100700.78;694580;28;69158;-64
2022/06/24 00:20:41;;;;;;;995.03;929.33;;;;;;;25.37;39.09;100703.53;694182;28;70147;-64
2022/06/24 00:21:10;;;;;;;999.78;933.85;;;;;;;25.34;38.67;100704.09;693276;28;92236;-64
2022/06/24 00:21:33;;;;;;;1001.25;935.35;;;;;;;25.33;39.11;100703.28;695223;28;61650;-63
2022/06/24 00:21:58;;;;;;;1004.00;938.00;;;;;;;25.29;38.88;100696.63;696164;28;21595;-62
2022/06/24 00:22:21;;;;;;;1016.00;949.60;;;;;;;25.30;38.61;100700.25;691725;28;137877;-62
2022/06/24 00:22:45;;;;;;;1015.33;948.90;;;;;;;25.28;38.91;100697.75;694247;28;69446;-63
2022/06/24 00:23:08;;;;;;;1015.10;948.55;;;;;;;25.27;39.20;100698.00;697472;28;69197;-65
2022/06/24 00:23:29;;;;;;;998.25;932.28;;;;;;;25.26;39.05;100702.69;699708;28;958;-64
2022/06/24 00:23:52;;;;;;;1014.50;947.92;;;;;;;25.24;38.88;100704.91;695521;28;45244;-64
2022/06/24 00:24:22;;;;;;;1012.45;946.05;;;;;;;25.24;39.02;100701.31;694661;28;45292;-64
2022/06/24 00:24:44;;;;;;;1003.13;937.00;;;;;;;25.21;39.18;100699.94;690961;28;137682;-66
2022/06/24 00:25:08;;;;;;;995.28;929.47;;;;;;;25.23;38.96;100702.41;694256;28;1331;-65
2022/06/24 00:25:36;;;;;;;993.60;928.00;;;;;;;25.21;39.02;100702.69;692698;28;40092;-64
2022/06/24 00:25:57;;;;;;;995.47;929.83;;;;;;;25.20;39.29;100706.56;691879;28;138664;-64
2022/06/24 00:26:18;;;;;;;995.33;929.67;;;;;;;25.19;38.91;100702.97;695760;28;22386;-64
2022/06/24 00:26:41;;;;;;;991.67;926.15;;;;;;;25.18;39.18;100703.25;695776;28;21544;-65
2022/06/24 00:27:16;;;;;;;999.72;933.72;;;;;;;25.16;39.20;100700.75;692703;28;68592;-65
2022/06/24 00:27:38;;;;;;;1001.83;935.92;;;;;;;25.15;39.03;100701.84;691361;28;137498;-65
2022/06/24 00:28:02;;;;;;;1008.03;941.83;;;;;;;25.14;38.96;100705.75;695640;28;21507;-64
2022/06/24 00:28:25;;;;;;;1011.75;945.45;;;;;;;25.14;39.51;100705.75;693120;28;92252;-64
2022/06/24 00:28:47;;;;;;;1017.53;951.13;;;;;;;25.12;39.21;100707.94;694152;28;69253;-64
2022/06/24 00:29:08;;;;;;;1018.45;951.95;;;;;;;25.11;39.06;100708.19;692736;28;44133;-64
2022/06/24 00:29:32;;;;;;;1020.08;953.47;;;;;;;25.09;39.01;100704.91;692371;28;23463;-64
2022/06/24 00:29:54;;;;;;;1013.70;947.33;;;;;;;25.07;39.45;100707.13;691230;28;89985;-64
2022/06/24 00:30:17;;;;;;;1016.33;949.85;;;;;;;25.06;39.40;100706.25;695019;28;44323;-64
2022/06/24 00:30:40;;;;;;;1007.10;941.05;;;;;;;25.05;39.42;100703.78;693967;28;69395;-66
2022/06/24 00:31:04;;;;;;;968.22;903.50;;;;;;;25.06;39.17;100705.44;693671;28;69433;-64
2022/06/24 00:31:25;;;;;;;1017.75;951.22;;;;;;;25.05;39.11;100707.38;693656;28;93292;-64
2022/06/24 00:32:04;;;;;;;1023.90;957.15;;;;;;;25.05;39.63;100703.78;696447;28;23470;-65
2022/06/24 00:32:30;;;;;;;1022.42;955.67;;;;;;;25.04;39.49;100704.91;691624;28;138303;-64
2022/06/24 00:32:51;;;;;;;1025.32;958.50;;;;;;;25.02;39.40;100704.34;692119;28;114919;-64
2022/06/24 00:33:13;;;;;;;1030.10;963.15;;;;;;;25.00;39.37;100699.94;696634;28;23481;-63
2022/06/24 00:33:36;;;;;;;1018.75;952.25;;;;;;;24.99;39.43;100692.72;695294;28;46285;-64
2022/06/24 00:33:57;;;;;;;1006.75;940.60;;;;;;;25.01;39.21;100697.97;693882;28;92187;-63
2022/06/24 00:34:23;;;;;;;1001.40;935.47;;;;;;;25.00;39.35;100701.88;695628;28;23435;-65
2022/06/24 00:34:44;;;;;;;1021.25;954.55;;;;;;;24.99;39.70;100702.97;691651;28;115003;-64
2022/06/24 00:35:09;;;;;;;1019.45;952.88;;;;;;;24.98;39.51;100698.53;696482;28;23468;-64
2022/06/24 00:35:36;;;;;;;1018.30;951.80;;;;;;;24.97;39.57;100694.13;692674;28;114929;-64
2022/06/24 00:35:59;;;;;;;1014.70;948.33;;;;;;;24.96;39.73;100700.75;691937;28;139315;-66
2022/06/24 00:36:20;;;;;;;1022.03;955.42;;;;;;;24.94;39.53;100695.50;694095;28;68302;-67
2022/06/24 00:36:43;;;;;;;1022.22;955.70;;;;;;;24.93;39.64;100702.13;695252;28;45241;-66
2022/06/24 00:37:24;;;;;;;1022.83;956.10;;;;;;;24.93;39.78;100704.88;695507;28;46409;-64
2022/06/24 00:37:47;;;;;;;1028.22;961.22;;;;;;;24.92;39.66;100694.94;691535;28;137356;-64
2022/06/24 00:38:22;;;;;;;1024.82;958.03;;;;;;;24.92;39.51;100702.38;694739;28;67458;-64
2022/06/24 00:38:50;;;;;;;1024.22;957.35;;;;;;;24.91;39.49;100698.00;691187;28;159772;-65
2022/06/24 00:39:11;;;;;;;1015.00;948.60;;;;;;;24.91;39.47;100698.81;692274;28;138974;-65
2022/06/24 00:39:35;;;;;;;1012.42;946.13;;;;;;;24.93;39.42;100704.06;695661;28;23465;-65
2022/06/24 00:40:00;;;;;;;1015.53;949.05;;;;;;;24.94;39.72;100702.97;667246;28;92528;-65
2022/06/24 00:40:24;;;;;;;1009.05;942.90;;;;;;;24.95;39.65;100702.69;692666;28;115178;-65
2022/06/24 00:40:47;;;;;;;1017.30;950.80;;;;;;;24.94;39.66;100695.50;693613;28;89900;-65
2022/06/24 00:41:12;;;;;;;1018.53;951.92;;;;;;;24.94;39.39;100698.25;692199;28;46472;-65
2022/06/24 00:41:35;;;;;;;1017.03;950.53;;;;;;;24.96;39.96;100706.28;689417;28;114397;-65
2022/06/24 00:41:56;;;;;;;1021.95;955.28;;;;;;;24.95;39.54;100697.16;693891;28;70113;-65
2022/06/24 00:42:18;;;;;;;1027.97;961.17;;;;;;;24.95;39.54;100697.16;695849;28;23653;-65
2022/06/24 00:42:42;;;;;;;1023.22;956.53;;;;;;;24.94;39.43;100698.25;693456;28;69433;-65
2022/06/24 00:43:03;;;;;;;1021.35;954.65;;;;;;;24.95;39.78;100690.78;694124;28;90713;-65
2022/06/24 00:43:27;;;;;;;1009.92;943.72;;;;;;;24.94;39.61;100703.78;696970;28;1556;-65
2022/06/24 00:43:53;;;;;;;1019.13;952.58;;;;;;;24.97;39.37;100694.13;694293;28;69463;-65
2022/06/24 00:44:17;;;;;;;1017.90;951.35;;;;;;;24.97;39.37;100691.38;692310;28;137970;-65
2022/06/24 00:44:44;;;;;;;1017.85;951.33;;;;;;;24.98;39.35;100693.00;693890;28;69376;-65
2022/06/24 00:45:15;;;;;;;1016.42;949.85;;;;;;;24.97;39.48;100694.94;692168;28;136178;-66
2022/06/24 00:45:40;;;;;;;1019.42;952.83;;;;;;;24.98;39.42;100693.00;692473;28;136047;-66
2022/06/24 00:46:08;;;;;;;1023.55;956.75;;;;;;;24.98;39.23;100701.28;692610;28;115337;-64
2022/06/24 00:46:35;;;;;;;1025.65;958.85;;;;;;;24.94;39.61;100697.44;690882;28;160874;-66
2022/06/24 00:46:57;;;;;;;1015.13;948.60;;;;;;;24.95;39.71;100693.56;690588;28;161404;-65
2022/06/24 00:47:21;;;;;;;1015.33;948.63;;;;;;;24.95;39.39;100693.56;693902;28;69164;-65
2022/06/24 00:47:43;;;;;;;1014.45;947.85;;;;;;;24.96;39.67;100700.75;693548;28;69490;-66
2022/06/24 00:48:08;;;;;;;1020.35;953.60;;;;;;;24.95;39.89;100699.94;695365;28;43382;-67
2022/06/24 00:48:31;;;;;;;1022.10;955.35;;;;;;;24.95;39.78;100693.56;692245;28;114351;-67
2022/06/24 00:48:54;;;;;;;1022.28;955.58;;;;;;;24.97;39.32;100689.44;693318;28;92079;-67
2022/06/24 00:49:17;;;;;;;1020.88;954.10;;;;;;;24.97;39.67;100694.94;694362;28;45222;-63
2022/06/24 00:49:38;;;;;;;1019.27;952.60;;;;;;;25.04;39.43;100699.38;692321;28;69664;-66
2022/06/24 00:50:04;;;;;;;1017.80;951.17;;;;;;;25.05;39.54;100692.72;694761;28;44285;-66
2022/06/24 00:50:27;;;;;;;1019.53;952.90;;;;;;;25.05;39.26;100699.09;692038;28;136618;-65
2022/06/24 00:50:50;;;;;;;1023.45;956.72;;;;;;;25.06;39.49;100697.16;693962;28;90182;-66
2022/06/24 00:51:11;;;;;;;1011.10;944.80;;;;;;;25.06;39.55;100703.50;695279;28;45235;-63
2022/06/24 00:51:36;;;;;;;1014.47;948.05;;;;;;;25.05;39.50;100701.88;695110;28;45066;-63
2022/06/24 00:51:58;;;;;;;1014.58;948.20;;;;;;;25.07;39.26;100701.59;693070;28;114905;-62
2022/06/24 00:52:19;;;;;;;996.15;930.53;;;;;;;25.07;39.33;100698.81;696394;28;22378;-64
2022/06/24 00:52:41;;;;;;;975.15;910.28;;;;;;;25.06;39.38;100694.41;694749;28;45258;-64
2022/06/24 00:53:04;;;;;;;1006.20;940.17;;;;;;;25.07;39.50;100693.31;696263;28;22409;-65
2022/06/24 00:53:25;;;;;;;1007.85;941.78;;;;;;;25.06;39.11;100703.50;694531;28;67502;-64
2022/06/24 00:53:48;;;;;;;1006.45;940.45;;;;;;;25.05;39.48;100695.50;695076;28;45221;-62
2022/06/24 00:54:11;;;;;;;1007.85;941.65;;;;;;;25.09;38.98;100694.66;694590;28;69423;-64
2022/06/24 00:54:34;;;;;;;1005.80;939.70;;;;;;;25.10;39.05;100695.50;694502;28;45396;-63
2022/06/24 00:54:56;;;;;;;1013.33;946.97;;;;;;;25.10;39.30;100699.09;693232;28;90157;-64
2022/06/24 00:55:19;;;;;;;1015.03;948.60;;;;;;;25.11;39.39;100691.63;696022;28;23457;-64
2022/06/24 00:55:41;;;;;;;1009.55;943.35;;;;;;;25.08;39.40;100695.78;694251;28;69326;-64
2022/06/24 00:56:04;;;;;;;1018.63;952.03;;;;;;;25.09;39.40;100693.84;694391;28;65832;-64
2022/06/24 00:56:26;;;;;;;1023.42;956.67;;;;;;;25.09;39.24;100700.19;695291;28;45300;-65
2022/06/24 00:56:53;;;;;;;1025.43;958.53;;;;;;;25.10;38.98;100698.28;692934;28;69105;-66
2022/06/24 00:57:16;;;;;;;1019.03;952.28;;;;;;;25.09;39.09;100694.66;691711;28;137755;-66
2022/06/24 00:57:39;;;;;;;990.90;925.35;;;;;;;25.10;38.90;100698.28;695013;28;46263;-64
2022/06/24 00:58:00;;;;;;;992.80;927.17;;;;;;;25.08;39.19;100689.41;694496;28;69400;-65
2022/06/24 00:58:22;;;;;;;997.20;931.42;;;;;;;25.10;39.29;100690.81;696007;28;21553;-64
2022/06/24 00:58:51;;;;;;;990.58;924.95;;;;;;;25.12;38.73;100698.81;695144;28;46389;-65
2022/06/24 00:59:12;;;;;;;1001.55;935.50;;;;;;;25.12;39.08;100694.13;691897;28;127390;-64
2022/06/24 00:59:34;;;;;;;981.92;916.67;;;;;;;25.15;39.10;100696.31;695697;28;21279;-64
2022/06/24 00:59:56;;;;;;;1013.67;947.33;;;;;;;25.10;39.09;100685.28;694487;28;44366;-64
2022/06/24 01:00:19;;;;;;;1016.53;950.08;;;;;;;25.16;39.22;100692.47;696200;28;22198;-65
2022/06/24 01:00:42;;;;;;;1014.70;948.30;;;;;;;25.16;38.89;100699.94;694326;28;67530;-64
2022/06/24 01:01:03;;;;;;;1019.60;952.95;;;;;;;25.15;38.93;100690.81;693434;28;92366;-64
2022/06/24 01:01:28;;;;;;;1011.25;944.95;;;;;;;25.15;38.81;100695.50;696393;28;21559;-64
2022/06/24 01:01:51;;;;;;;1015.25;948.85;;;;;;;25.12;39.08;100688.59;692623;28;115143;-64
2022/06/24 01:02:16;;;;;;;1017.15;950.60;;;;;;;25.14;38.96;100693.84;694799;28;45070;-64
2022/06/24 01:02:37;;;;;;;1011.92;945.55;;;;;;;25.12;39.26;100696.88;691765;28;138105;-65
2022/06/24 01:02:59;;;;;;;1011.08;944.78;;;;;;;25.12;39.19;100687.78;695546;28;44373;-65
2022/06/24 01:03:36;;;;;;;1012.38;946.08;;;;;;;25.12;38.98;100687.78;695855;28;44899;-65
2022/06/24 01:03:59;;;;;;;1019.95;953.28;;;;;;;25.12;39.04;100691.34;692285;28;138658;-65
2022/06/24 01:04:20;;;;;;;1024.10;957.33;;;;;;;25.13;39.20;100694.97;696273;28;44372;-66
2022/06/24 01:04:42;;;;;;;1024.28;957.50;;;;;;;25.13;39.13;100695.78;695382;28;23415;-66
2022/06/24 01:05:05;;;;;;;1018.22;951.60;;;;;;;25.15;38.61;100689.97;694585;28;67370;-66
2022/06/24 01:05:28;;;;;;;1019.85;952.95;;;;;;;25.15;38.82;100692.75;692988;28;69435;-66
2022/06/24 01:05:49;;;;;;;1019.25;951.88;;;;;;;25.13;38.79;100684.72;692280;28;46294;-63
2022/06/24 01:06:11;;;;;;;1017.03;950.10;;;;;;;25.15;38.59;100692.75;694894;28;21493;-66
2022/06/24 01:06:33;;;;;;;1018.70;952.13;;;;;;;25.15;38.62;100693.56;694712;28;69411;-62
2022/06/24 01:06:54;;;;;;;1018.63;951.95;;;;;;;25.16;38.48;100691.66;694681;28;22402;-64
2022/06/24 01:07:20;;;;;;;1022.05;955.13;;;;;;;25.17;39.15;100691.38;695845;28;23475;-66
2022/06/24 01:07:42;;;;;;;1020.83;954.13;;;;;;;25.18;38.87;100695.78;691119;28;136500;-66
2022/06/24 01:08:08;;;;;;;1025.78;958.92;;;;;;;25.18;38.71;100694.97;695333;28;47464;-66
2022/06/24 01:08:29;;;;;;;1020.85;954.17;;;;;;;25.17;38.62;100691.38;691967;28;137977;-67
2022/06/24 01:08:50;;;;;;;1022.75;956.05;;;;;;;25.18;38.69;100693.00;695785;28;22390;-67
2022/06/24 01:09:15;;;;;;;1025.22;958.45;;;;;;;25.17;38.75;100694.13;695293;28;32815;-66
2022/06/24 01:09:38;;;;;;;997.60;931.90;;;;;;;25.18;38.61;100695.78;687024;28;107475;-62
2022/06/24 01:09:59;;;;;;;999.25;933.55;;;;;;;25.17;38.50;100693.28;690146;28;46376;-66
2022/06/24 01:10:21;;;;;;;991.35;925.92;;;;;;;25.20;38.59;100692.72;691623;28;22416;-64
2022/06/24 01:10:48;;;;;;;996.67;931.00;;;;;;;25.20;38.56;100698.25;690744;28;22413;-64
2022/06/24 01:11:09;;;;;;;995.17;929.58;;;;;;;25.22;38.52;100695.22;688408;28;137794;-64
2022/06/24 01:11:34;;;;;;;1000.65;934.78;;;;;;;25.22;38.92;100692.47;694059;28;22417;-63
2022/06/24 01:11:55;;;;;;;994.97;929.28;;;;;;;25.22;38.31;100695.22;692553;28;114938;-64
2022/06/24 01:12:17;;;;;;;995.05;929.42;;;;;;;25.21;39.02;100693.59;696383;28;22344;-64
2022/06/24 01:12:38;;;;;;;993.17;927.60;;;;;;;25.21;38.40;100696.34;695198;28;44184;-64
2022/06/24 01:13:00;;;;;;;988.60;923.13;;;;;;;25.20;38.52;100695.50;695432;28;23490;-64
2022/06/24 01:13:23;;;;;;;988.92;923.45;;;;;;;25.21;38.61;100696.34;694840;28;44920;-63
2022/06/24 01:13:45;;;;;;;968.20;903.42;;;;;;;25.21;38.58;100691.66;693539;28;67525;-64
2022/06/24 01:14:07;;;;;;;1001.45;935.40;;;;;;;25.20;38.92;100698.25;693848;28;46395;-63
2022/06/24 01:14:29;;;;;;;1024.13;957.33;;;;;;;25.19;38.82;100691.91;695501;28;44152;-63
2022/06/24 01:14:51;;;;;;;1013.92;947.53;;;;;;;25.18;38.70;100693.00;695067;28;22314;-64
2022/06/24 01:15:12;;;;;;;1015.75;949.35;;;;;;;25.11;38.73;100691.63;694704;28;46329;-63
2022/06/24 01:15:33;;;;;;;1015.38;948.95;;;;;;;25.16;38.97;100699.94;694874;28;46209;-63
2022/06/24 01:15:55;;;;;;;1016.05;949.65;;;;;;;25.15;39.02;100703.78;695487;28;21316;-63
2022/06/24 01:16:17;;;;;;;1014.45;948.05;;;;;;;25.13;39.11;100693.03;695968;28;22186;-64
2022/06/24 01:16:38;;;;;;;1020.10;953.50;;;;;;;25.10;38.80;100693.56;695258;28;46537;-63
2022/06/24 01:16:59;;;;;;;1016.85;950.25;;;;;;;25.09;39.41;100702.13;695973;28;21487;-64
2022/06/24 01:17:20;;;;;;;1012.38;945.88;;;;;;;25.07;38.79;100696.88;695247;28;46373;-64
2022/06/24 01:17:43;;;;;;;1013.53;947.13;;;;;;;25.05;39.04;100693.56;695626;28;22409;-62
2022/06/24 01:18:04;;;;;;;1026.50;959.58;;;;;;;25.04;39.05;100694.66;695278;28;46694;-63
2022/06/24 01:18:26;;;;;;;1036.38;969.10;;;;;;;25.04;39.21;100700.19;696485;28;23259;-64
2022/06/24 01:18:50;;;;;;;1042.38;974.83;;;;;;;25.04;39.46;100693.84;694427;28;67473;-64
2022/06/24 01:19:14;;;;;;;1043.55;976.00;;;;;;;24.99;39.20;100692.72;694360;28;69935;-64
2022/06/24 01:19:35;;;;;;;1036.20;969.00;;;;;;;25.01;38.91;100697.97;694062;28;90724;-64
2022/06/24 01:19:57;;;;;;;1025.47;958.65;;;;;;;25.01;38.94;100692.47;695831;28;22365;-63
2022/06/24 01:20:18;;;;;;;1007.65;941.50;;;;;;;25.02;38.74;100693.31;696243;28;43796;-64
2022/06/24 01:20:40;;;;;;;1010.10;943.80;;;;;;;25.00;38.87;100693.59;695541;28;22443;-64
2022/06/24 01:21:02;;;;;;;1015.38;948.88;;;;;;;25.01;38.89;100692.47;695614;28;44375;-64
2022/06/24 01:21:31;;;;;;;1012.88;946.40;;;;;;;25.00;38.92;100691.63;695717;28;46367;-64
2022/06/24 01:21:53;;;;;;;1013.03;946.63;;;;;;;25.00;39.02;100690.81;691738;28;158894;-64
2022/06/24 01:22:19;;;;;;;1019.80;953.20;;;;;;;25.00;38.89;100691.63;695556;28;46322;-64
2022/06/24 01:22:41;;;;;;;1017.22;950.65;;;;;;;24.98;38.76;100693.00;692084;28;137663;-64
2022/06/24 01:23:03;;;;;;;1015.72;949.22;;;;;;;24.95;39.25;100694.41;695777;28;46289;-63
2022/06/24 01:23:25;;;;;;;1023.78;957.05;;;;;;;24.96;38.88;100690.53;697140;28;23432;-65
2022/06/24 01:23:46;;;;;;;1022.72;956.03;;;;;;;24.96;39.01;100696.03;695444;28;46269;-65
2022/06/24 01:24:08;;;;;;;1017.63;951.08;;;;;;;24.96;38.98;100686.94;696215;28;22480;-64
2022/06/24 01:24:31;;;;;;;1007.33;941.13;;;;;;;24.97;39.22;100686.66;694512;28;69240;-65
2022/06/24 01:24:53;;;;;;;985.33;919.90;;;;;;;24.99;39.06;100681.69;694984;28;46269;-65
2022/06/24 01:25:14;;;;;;;995.05;929.35;;;;;;;25.00;39.29;100685.28;695675;28;46311;-66
2022/06/24 01:25:35;;;;;;;1010.10;943.90;;;;;;;25.00;38.90;100685.28;695582;28;45248;-65
2022/06/24 01:25:57;;;;;;;1015.13;948.67;;;;;;;24.98;38.97;100680.03;695725;28;23696;-64
2022/06/24 01:26:19;;;;;;;1017.78;951.22;;;;;;;24.99;39.04;100684.44;697207;28;22390;-68
2022/06/24 01:26:41;;;;;;;1010.95;944.75;;;;;;;25.00;38.97;100677.81;695845;28;46388;-64
2022/06/24 01:27:03;;;;;;;1027.15;960.17;;;;;;;24.99;39.24;100681.69;694247;28;69409;-64
2022/06/24 01:27:24;;;;;;;1025.72;958.88;;;;;;;24.99;39.21;100678.91;696134;28;23648;-64
2022/06/24 01:27:46;;;;;;;1013.65;947.30;;;;;;;25.00;39.41;100688.06;695729;28;44297;-64
2022/06/24 01:28:08;;;;;;;1026.18;959.35;;;;;;;25.00;39.19;100685.28;695364;28;44985;-64
2022/06/24 01:28:29;;;;;;;1021.35;954.65;;;;;;;25.01;39.31;100681.41;696276;28;22401;-64
2022/06/24 01:28:51;;;;;;;1014.78;948.28;;;;;;;24.98;39.08;100677.28;696232;28;22352;-64
2022/06/24 01:29:14;;;;;;;1017.10;950.50;;;;;;;24.99;39.10;100681.69;695043;28;44391;-64
2022/06/24 01:29:36;;;;;;;1012.55;946.10;;;;;;;25.01;38.94;100684.16;694643;28;69393;-64
2022/06/24 01:29:57;;;;;;;1017.03;950.45;;;;;;;25.00;39.15;100682.53;693967;28;64957;-64
2022/06/24 01:30:18;;;;;;;1026.80;959.90;;;;;;;24.98;38.82;100685.56;696078;28;22388;-64
2022/06/24 01:30:40;;;;;;;1031.65;964.47;;;;;;;24.99;39.11;100683.63;696012;28;21520;-64
2022/06/24 01:31:02;;;;;;;1040.32;972.83;;;;;;;24.99;38.84;100683.63;694970;28;44194;-65
2022/06/24 01:31:23;;;;;;;1037.70;970.30;;;;;;;24.99;38.56;100681.69;695442;28;44395;-65
2022/06/24 01:31:48;;;;;;;1046.55;978.85;;;;;;;24.99;38.82;100680.88;696483;28;22556;-65
2022/06/24 01:32:10;;;;;;;1041.30;973.75;;;;;;;24.96;38.84;100673.13;693068;28;112943;-64
2022/06/24 01:32:32;;;;;;;1042.80;975.22;;;;;;;24.99;38.73;100667.88;695500;28;22391;-64
2022/06/24 01:32:54;;;;;;;1040.20;972.72;;;;;;;25.00;39.28;100675.06;694693;28;69268;-65
2022/06/24 01:33:15;;;;;;;1042.60;975.00;;;;;;;25.02;39.41;100677.53;696165;28;22317;-65
2022/06/24 01:33:36;;;;;;;1042.63;975.03;;;;;;;25.01;38.91;100684.16;695862;28;44392;-65
2022/06/24 01:33:58;;;;;;;1036.68;969.28;;;;;;;25.00;38.66;100674.25;696047;28;23313;-65
2022/06/24 01:34:21;;;;;;;1028.95;961.88;;;;;;;25.00;38.59;100680.59;696259;28;23444;-64
2022/06/24 01:34:42;;;;;;;1029.63;962.55;;;;;;;25.04;38.77;100682.81;692559;28;92288;-66
2022/06/24 01:35:05;;;;;;;1014.65;948.15;;;;;;;25.01;38.44;100673.13;696039;28;22405;-65
2022/06/24 01:35:26;;;;;;;1012.33;945.93;;;;;;;25.00;38.51;100682.53;694552;28;69370;-66
2022/06/24 01:35:48;;;;;;;1012.25;945.95;;;;;;;25.04;38.61;100688.31;695303;28;44214;-65
2022/06/24 01:36:10;;;;;;;1018.08;951.47;;;;;;;25.04;38.63;100674.50;694492;28;46347;-67
2022/06/24 01:36:32;;;;;;;1014.28;947.83;;;;;;;25.05;38.70;100677.00;696165;28;22223;-64
2022/06/24 01:36:53;;;;;;;1021.28;954.55;;;;;;;25.07;38.74;100679.50;694099;28;69769;-67
2022/06/24 01:37:14;;;;;;;1016.03;949.53;;;;;;;25.06;38.48;100680.59;696190;28;22390;-63
2022/06/24 01:37:37;;;;;;;1008.50;942.20;;;;;;;25.09;38.68;100680.84;695878;28;22404;-64
2022/06/24 01:37:58;;;;;;;1006.28;940.15;;;;;;;25.11;38.52;100683.34;695109;28;46273;-65
2022/06/24 01:38:19;;;;;;;1001.20;935.30;;;;;;;25.12;38.17;100683.06;696214;28;22397;-64
2022/06/24 01:38:40;;;;;;;1018.15;951.55;;;;;;;25.13;38.42;100678.38;696123;28;22388;-65
2022/06/24 01:39:02;;;;;;;1007.30;941.10;;;;;;;25.12;38.52;100676.72;695490;28;44390;-66
2022/06/24 01:39:24;;;;;;;981.95;916.63;;;;;;;25.11;38.09;100680.56;694723;28;69457;-63
2022/06/24 01:39:46;;;;;;;993.10;927.35;;;;;;;25.12;38.29;100682.25;694266;28;69437;-63
2022/06/24 01:40:08;;;;;;;987.45;921.92;;;;;;;25.10;38.20;100677.00;695915;28;21535;-64
2022/06/24 01:40:31;;;;;;;993.35;927.67;;;;;;;25.10;38.61;100673.41;695336;28;44314;-64
2022/06/24 01:40:52;;;;;;;999.70;933.80;;;;;;;25.10;38.54;100676.16;694425;28;69475;-63
2022/06/24 01:41:13;;;;;;;992.83;927.17;;;;;;;25.09;38.53;100678.09;695535;28;21533;-63
2022/06/24 01:41:35;;;;;;;990.55;924.97;;;;;;;25.10;38.44;100670.66;695728;28;23510;-63
2022/06/24 01:41:57;;;;;;;993.25;927.58;;;;;;;25.08;38.28;100676.44;695252;28;46339;-63
2022/06/24 01:42:18;;;;;;;999.67;933.67;;;;;;;25.10;38.45;100677.00;695059;28;47104;-63
2022/06/24 01:42:39;;;;;;;1001.45;935.50;;;;;;;25.10;38.27;100679.75;693935;28;22862;-63
2022/06/24 01:43:01;;;;;;;1003.47;937.42;;;;;;;25.05;38.40;100671.47;695216;28;22258;-63
2022/06/24 01:43:28;;;;;;;1006.50;940.40;;;;;;;25.12;38.30;100673.94;693756;28;82281;-65
2022/06/24 01:43:49;;;;;;;1014.45;948.00;;;;;;;25.11;38.54;100680.56;693610;28;69358;-62